createdAt,value
2023-10-09T00:00:01.378Z,98717.00
2023-10-09T00:00:11.442Z,98715.00
2023-10-09T00:00:21.481Z,98713.00
2023-10-09T00:00:31.568Z,98715.00
2023-10-09T00:00:41.607Z,98715.00
2023-10-09T00:00:51.652Z,98715.00
2023-10-09T00:01:01.688Z,98715.00
2023-10-09T00:01:11.699Z,98717.00
2023-10-09T00:01:21.733Z,98713.00
2023-10-09T00:01:31.772Z,98715.00
2023-10-09T00:01:41.872Z,98715.00
2023-10-09T00:01:51.941Z,98715.00
2023-10-09T00:02:01.961Z,98715.00
2023-10-09T00:02:11.995Z,98717.00
2023-10-09T00:02:22.038Z,98717.00
2023-10-09T00:02:32.084Z,98715.00
2023-10-09T00:02:42.118Z,98717.00
2023-10-09T00:02:52.224Z,98715.00
2023-10-09T00:03:02.487Z,98715.00
2023-10-09T00:03:12.375Z,98715.00
2023-10-09T00:03:22.619Z,98719.00
2023-10-09T00:03:32.697Z,98717.00
2023-10-09T00:03:42.704Z,98715.00
2023-10-09T00:03:53.069Z,98717.00
2023-10-09T00:04:03.170Z,98715.00
2023-10-09T00:04:13.320Z,98715.00
2023-10-09T00:04:23.063Z,98715.00
2023-10-09T00:04:33.105Z,98715.00
2023-10-09T00:04:43.757Z,98715.00
2023-10-09T00:04:53.226Z,98715.00
2023-10-09T00:05:03.245Z,98717.00
2023-10-09T00:05:13.243Z,98717.00
2023-10-09T00:05:23.250Z,98717.00
2023-10-09T00:05:33.526Z,98715.00
2023-10-09T00:05:43.534Z,98717.00
2023-10-09T00:05:53.596Z,98715.00
2023-10-09T00:06:03.726Z,98719.00
2023-10-09T00:06:13.812Z,98717.00
2023-10-09T00:06:23.840Z,98715.00
2023-10-09T00:06:33.798Z,98719.00
2023-10-09T00:06:44.072Z,98717.00
2023-10-09T00:06:54.107Z,98717.00
2023-10-09T00:07:04.260Z,98717.00
2023-10-09T00:07:14.454Z,98717.00
2023-10-09T00:07:24.140Z,98717.00
2023-10-09T00:07:34.145Z,98717.00
2023-10-09T00:07:44.154Z,98719.00
2023-10-09T00:07:54.163Z,98715.00
2023-10-09T00:08:04.197Z,98713.00
2023-10-09T00:08:14.208Z,98715.00
2023-10-09T00:08:24.211Z,98713.00
2023-10-09T00:08:34.230Z,98713.00
2023-10-09T00:08:44.224Z,98717.00
2023-10-09T00:08:54.240Z,98717.00
2023-10-09T00:09:04.299Z,98715.00
2023-10-09T00:09:14.344Z,98717.00
2023-10-09T00:09:24.455Z,98717.00
2023-10-09T00:09:34.491Z,98717.00
2023-10-09T00:09:44.502Z,98715.00
2023-10-09T00:09:54.504Z,98717.00
2023-10-09T00:10:04.530Z,98719.00
2023-10-09T00:10:14.810Z,98721.00
2023-10-09T00:10:24.809Z,98719.00
2023-10-09T00:10:34.820Z,98717.00
2023-10-09T00:10:44.831Z,98719.00
2023-10-09T00:10:55.238Z,98719.00
2023-10-09T00:11:04.956Z,98719.00
2023-10-09T00:11:15.000Z,98721.00
2023-10-09T00:11:25.065Z,98721.00
2023-10-09T00:11:35.080Z,98719.00
2023-10-09T00:11:45.091Z,98725.00
2023-10-09T00:11:55.391Z,98721.00
2023-10-09T00:12:05.461Z,98723.00
2023-10-09T00:12:15.554Z,98721.00
2023-10-09T00:12:25.884Z,98721.00
2023-10-09T00:12:35.927Z,98723.00
2023-10-09T00:12:45.918Z,98721.00
2023-10-09T00:12:55.933Z,98723.00
2023-10-09T00:13:05.940Z,98723.00
2023-10-09T00:13:15.940Z,98723.00
2023-10-09T00:13:25.956Z,98723.00
2023-10-09T00:13:35.965Z,98723.00
2023-10-09T00:13:45.971Z,98723.00
2023-10-09T00:13:55.984Z,98723.00
2023-10-09T00:14:06.006Z,98721.00
2023-10-09T00:14:16.008Z,98721.00
2023-10-09T00:14:26.014Z,98721.00
2023-10-09T00:14:36.031Z,98721.00
2023-10-09T00:14:46.041Z,98721.00
2023-10-09T00:14:56.062Z,98719.00
2023-10-09T00:15:06.141Z,98723.00
2023-10-09T00:15:16.178Z,98719.00
2023-10-09T00:15:26.207Z,98723.00
2023-10-09T00:15:36.187Z,98721.00
2023-10-09T00:15:46.191Z,98721.00
2023-10-09T00:15:56.210Z,98721.00
2023-10-09T00:16:06.257Z,98721.00
2023-10-09T00:16:16.311Z,98721.00
2023-10-09T00:16:26.336Z,98719.00
2023-10-09T00:16:36.637Z,98723.00
2023-10-09T00:16:46.479Z,98723.00
2023-10-09T00:16:56.526Z,98723.00
2023-10-09T00:17:06.563Z,98723.00
2023-10-09T00:17:16.888Z,98723.00
2023-10-09T00:17:26.657Z,98719.00
2023-10-09T00:17:36.925Z,98721.00
2023-10-09T00:17:46.957Z,98721.00
2023-10-09T00:17:57.023Z,98719.00
2023-10-09T00:18:07.151Z,98721.00
2023-10-09T00:18:17.110Z,98721.00
2023-10-09T00:18:27.201Z,98721.00
2023-10-09T00:18:37.312Z,98719.00
2023-10-09T00:18:47.391Z,98719.00
2023-10-09T00:18:57.356Z,98721.00
2023-10-09T00:19:07.357Z,98719.00
2023-10-09T00:19:17.361Z,98719.00
2023-10-09T00:19:27.375Z,98717.00
2023-10-09T00:19:37.377Z,98721.00
2023-10-09T00:19:47.375Z,98721.00
2023-10-09T00:19:57.388Z,98721.00
2023-10-09T00:20:07.404Z,98721.00
2023-10-09T00:20:17.410Z,98723.00
2023-10-09T00:20:27.411Z,98719.00
2023-10-09T00:20:37.426Z,98719.00
2023-10-09T00:20:47.433Z,98719.00
2023-10-09T00:20:57.454Z,98719.00
2023-10-09T00:21:07.494Z,98719.00
2023-10-09T00:21:17.523Z,98723.00
2023-10-09T00:21:27.547Z,98721.00
2023-10-09T00:21:37.572Z,98719.00
2023-10-09T00:21:47.596Z,98719.00
2023-10-09T00:21:57.592Z,98719.00
2023-10-09T00:22:07.601Z,98719.00
2023-10-09T00:22:17.612Z,98719.00
2023-10-09T00:22:27.860Z,98719.00
2023-10-09T00:22:37.749Z,98721.00
2023-10-09T00:22:48.004Z,98721.00
2023-10-09T00:22:58.010Z,98721.00
2023-10-09T00:23:08.021Z,98721.00
2023-10-09T00:23:18.094Z,98721.00
2023-10-09T00:23:28.079Z,98721.00
2023-10-09T00:23:38.110Z,98719.00
2023-10-09T00:23:48.120Z,98719.00
2023-10-09T00:23:58.171Z,98719.00
2023-10-09T00:24:08.273Z,98721.00
2023-10-09T00:24:18.317Z,98719.00
2023-10-09T00:24:28.611Z,98719.00
2023-10-09T00:24:38.673Z,98719.00
2023-10-09T00:24:48.727Z,98723.00
2023-10-09T00:24:58.729Z,98721.00
2023-10-09T00:25:08.748Z,98719.00
2023-10-09T00:25:18.794Z,98721.00
2023-10-09T00:25:28.797Z,98721.00
2023-10-09T00:25:38.809Z,98719.00
2023-10-09T00:25:48.823Z,98719.00
2023-10-09T00:25:58.828Z,98719.00
2023-10-09T00:26:08.840Z,98719.00
2023-10-09T00:26:18.848Z,98719.00
2023-10-09T00:26:28.886Z,98719.00
2023-10-09T00:26:38.869Z,98717.00
2023-10-09T00:26:48.880Z,98721.00
2023-10-09T00:26:58.926Z,98719.00
2023-10-09T00:27:08.961Z,98717.00
2023-10-09T00:27:19.012Z,98719.00
2023-10-09T00:27:29.034Z,98719.00
2023-10-09T00:27:39.028Z,98719.00
2023-10-09T00:27:49.058Z,98717.00
2023-10-09T00:27:59.051Z,98719.00
2023-10-09T00:28:09.059Z,98717.00
2023-10-09T00:28:19.068Z,98717.00
2023-10-09T00:28:29.102Z,98721.00
2023-10-09T00:28:39.123Z,98717.00
2023-10-09T00:28:49.115Z,98717.00
2023-10-09T00:28:59.125Z,98715.00
2023-10-09T00:29:09.147Z,98719.00
2023-10-09T00:29:19.155Z,98719.00
2023-10-09T00:29:29.156Z,98719.00
2023-10-09T00:29:39.166Z,98717.00
2023-10-09T00:29:49.226Z,98719.00
2023-10-09T00:29:59.287Z,98719.00
2023-10-09T00:30:09.306Z,98717.00
2023-10-09T00:30:19.641Z,98719.00
2023-10-09T00:30:29.431Z,98723.00
2023-10-09T00:30:39.577Z,98717.00
2023-10-09T00:30:49.537Z,98723.00
2023-10-09T00:30:59.585Z,98721.00
2023-10-09T00:31:09.656Z,98717.00
2023-10-09T00:31:19.678Z,98723.00
2023-10-09T00:31:29.700Z,98723.00
2023-10-09T00:31:39.689Z,98721.00
2023-10-09T00:31:49.691Z,98721.00
2023-10-09T00:31:59.694Z,98721.00
2023-10-09T00:32:09.700Z,98721.00
2023-10-09T00:32:19.704Z,98721.00
2023-10-09T00:32:29.755Z,98719.00
2023-10-09T00:32:39.818Z,98721.00
2023-10-09T00:32:49.837Z,98719.00
2023-10-09T00:33:00.066Z,98719.00
2023-10-09T00:33:10.241Z,98719.00
2023-10-09T00:33:20.339Z,98723.00
2023-10-09T00:33:30.476Z,98719.00
2023-10-09T00:33:40.468Z,98717.00
2023-10-09T00:33:50.529Z,98721.00
2023-10-09T00:34:00.541Z,98717.00
2023-10-09T00:34:10.544Z,98721.00
2023-10-09T00:34:20.549Z,98719.00
2023-10-09T00:34:30.551Z,98719.00
2023-10-09T00:34:40.636Z,98719.00
2023-10-09T00:34:50.665Z,98719.00
2023-10-09T00:35:00.675Z,98719.00
2023-10-09T00:35:10.701Z,98719.00
2023-10-09T00:35:20.818Z,98717.00
2023-10-09T00:35:30.829Z,98719.00
2023-10-09T00:35:40.839Z,98721.00
2023-10-09T00:35:50.891Z,98721.00
2023-10-09T00:36:01.185Z,98717.00
2023-10-09T00:36:11.356Z,98719.00
2023-10-09T00:36:21.215Z,98719.00
2023-10-09T00:36:31.248Z,98721.00
2023-10-09T00:36:43.736Z,98719.00
2023-10-09T00:36:52.070Z,98719.00
2023-10-09T00:37:01.495Z,98719.00
2023-10-09T00:37:11.496Z,98717.00
2023-10-09T00:37:21.626Z,98717.00
2023-10-09T00:37:31.625Z,98719.00
2023-10-09T00:37:41.648Z,98719.00
2023-10-09T00:37:51.663Z,98721.00
2023-10-09T00:38:01.661Z,98721.00
2023-10-09T00:38:11.697Z,98719.00
2023-10-09T00:38:22.003Z,98719.00
2023-10-09T00:38:31.979Z,98717.00
2023-10-09T00:38:41.989Z,98717.00
2023-10-09T00:38:52.041Z,98717.00
2023-10-09T00:39:02.222Z,98717.00
2023-10-09T00:39:12.146Z,98719.00
2023-10-09T00:39:22.183Z,98717.00
2023-10-09T00:39:32.195Z,98715.00
2023-10-09T00:39:42.206Z,98715.00
2023-10-09T00:39:52.252Z,98717.00
2023-10-09T00:40:02.285Z,98717.00
2023-10-09T00:40:12.301Z,98719.00
2023-10-09T00:40:22.308Z,98717.00
2023-10-09T00:40:32.333Z,98717.00
2023-10-09T00:40:42.338Z,98715.00
2023-10-09T00:40:52.335Z,98715.00
2023-10-09T00:41:02.343Z,98715.00
2023-10-09T00:41:12.352Z,98713.00
2023-10-09T00:41:22.357Z,98717.00
2023-10-09T00:41:32.386Z,98717.00
2023-10-09T00:41:42.392Z,98715.00
2023-10-09T00:41:52.430Z,98717.00
2023-10-09T00:42:02.484Z,98715.00
2023-10-09T00:42:12.541Z,98717.00
2023-10-09T00:42:22.627Z,98717.00
2023-10-09T00:42:32.687Z,98715.00
2023-10-09T00:42:42.719Z,98715.00
2023-10-09T00:42:52.729Z,98715.00
2023-10-09T00:43:02.739Z,98719.00
2023-10-09T00:43:12.748Z,98715.00
2023-10-09T00:43:22.757Z,98717.00
2023-10-09T00:43:32.778Z,98717.00
2023-10-09T00:43:42.780Z,98715.00
2023-10-09T00:43:52.798Z,98717.00
2023-10-09T00:44:02.797Z,98717.00
2023-10-09T00:44:13.117Z,98717.00
2023-10-09T00:44:22.909Z,98717.00
2023-10-09T00:44:32.928Z,98719.00
2023-10-09T00:44:42.971Z,98719.00
2023-10-09T00:44:53.055Z,98717.00
2023-10-09T00:45:03.138Z,98717.00
2023-10-09T00:45:13.155Z,98717.00
2023-10-09T00:45:23.224Z,98717.00
2023-10-09T00:45:33.333Z,98717.00
2023-10-09T00:45:43.355Z,98719.00
2023-10-09T00:45:53.508Z,98719.00
2023-10-09T00:46:03.543Z,98717.00
2023-10-09T00:46:13.705Z,98717.00
2023-10-09T00:46:23.651Z,98717.00
2023-10-09T00:46:33.698Z,98715.00
2023-10-09T00:46:43.714Z,98715.00
2023-10-09T00:46:53.716Z,98715.00
2023-10-09T00:47:03.724Z,98717.00
2023-10-09T00:47:13.729Z,98713.00
2023-10-09T00:47:23.805Z,98715.00
2023-10-09T00:47:34.201Z,98719.00
2023-10-09T00:47:44.214Z,98715.00
2023-10-09T00:47:54.283Z,98715.00
2023-10-09T00:48:04.363Z,98715.00
2023-10-09T00:48:14.493Z,98717.00
2023-10-09T00:48:24.565Z,98715.00
2023-10-09T00:48:34.519Z,98715.00
2023-10-09T00:48:44.509Z,98715.00
2023-10-09T00:48:54.511Z,98717.00
2023-10-09T00:49:04.523Z,98715.00
2023-10-09T00:49:14.528Z,98713.00
2023-10-09T00:49:24.530Z,98715.00
2023-10-09T00:49:34.537Z,98713.00
2023-10-09T00:49:44.540Z,98719.00
2023-10-09T00:49:54.567Z,98713.00
2023-10-09T00:50:04.573Z,98715.00
2023-10-09T00:50:14.584Z,98713.00
2023-10-09T00:50:24.629Z,98713.00
2023-10-09T00:50:34.666Z,98717.00
2023-10-09T00:50:44.670Z,98713.00
2023-10-09T00:50:54.697Z,98715.00
2023-10-09T00:51:04.721Z,98717.00
2023-10-09T00:51:14.805Z,98715.00
2023-10-09T00:51:24.836Z,98715.00
2023-10-09T00:51:34.863Z,98713.00
2023-10-09T00:51:44.868Z,98715.00
2023-10-09T00:51:54.864Z,98713.00
2023-10-09T00:52:04.878Z,98713.00
2023-10-09T00:52:14.883Z,98715.00
2023-10-09T00:52:24.892Z,98713.00
2023-10-09T00:52:34.903Z,98713.00
2023-10-09T00:52:44.927Z,98713.00
2023-10-09T00:52:54.953Z,98715.00
2023-10-09T00:53:04.958Z,98713.00
2023-10-09T00:53:14.958Z,98713.00
2023-10-09T00:53:24.977Z,98715.00
2023-10-09T00:53:34.989Z,98711.00
2023-10-09T00:53:44.995Z,98713.00
2023-10-09T00:53:55.019Z,98713.00
2023-10-09T00:54:05.069Z,98715.00
2023-10-09T00:54:16.045Z,98715.00
2023-10-09T00:54:25.159Z,98713.00
2023-10-09T00:54:35.352Z,98713.00
2023-10-09T00:54:45.353Z,98713.00
2023-10-09T00:54:55.376Z,98713.00
2023-10-09T00:55:05.389Z,98713.00
2023-10-09T00:55:15.790Z,98711.00
2023-10-09T00:55:25.396Z,98715.00
2023-10-09T00:55:35.404Z,98715.00
2023-10-09T00:55:45.415Z,98713.00
2023-10-09T00:55:55.406Z,98713.00
2023-10-09T00:56:05.409Z,98711.00
2023-10-09T00:56:15.420Z,98713.00
2023-10-09T00:56:25.431Z,98713.00
2023-10-09T00:56:35.592Z,98713.00
2023-10-09T00:56:45.568Z,98713.00
2023-10-09T00:56:55.584Z,98711.00
2023-10-09T00:57:05.631Z,98711.00
2023-10-09T00:57:15.702Z,98713.00
2023-10-09T00:57:26.076Z,98711.00
2023-10-09T00:57:35.970Z,98711.00
2023-10-09T00:57:45.985Z,98711.00
2023-10-09T00:57:55.984Z,98713.00
2023-10-09T00:58:06.004Z,98713.00
2023-10-09T00:58:16.093Z,98713.00
2023-10-09T00:58:26.099Z,98713.00
2023-10-09T00:58:36.126Z,98715.00
2023-10-09T00:58:46.111Z,98713.00
2023-10-09T00:58:56.117Z,98711.00
2023-10-09T00:59:06.117Z,98711.00
2023-10-09T00:59:16.228Z,98711.00
2023-10-09T00:59:26.253Z,98713.00
2023-10-09T00:59:36.251Z,98711.00
2023-10-09T00:59:46.260Z,98711.00
2023-10-09T00:59:56.308Z,98711.00
2023-10-09T01:00:06.333Z,98709.00
2023-10-09T01:00:16.638Z,98711.00
2023-10-09T01:00:26.714Z,98709.00
2023-10-09T01:00:36.758Z,98709.00
2023-10-09T01:00:46.908Z,98709.00
2023-10-09T01:00:56.860Z,98711.00
2023-10-09T01:01:06.873Z,98709.00
2023-10-09T01:01:16.938Z,98711.00
2023-10-09T01:01:27.030Z,98709.00
2023-10-09T01:01:37.231Z,98709.00
2023-10-09T01:01:47.182Z,98707.00
2023-10-09T01:01:58.268Z,98709.00
2023-10-09T01:02:07.460Z,98707.00
2023-10-09T01:02:17.453Z,98707.00
2023-10-09T01:02:27.530Z,98707.00
2023-10-09T01:02:37.643Z,98705.00
2023-10-09T01:02:50.473Z,98709.00
2023-10-09T01:02:57.705Z,98707.00
2023-10-09T01:03:07.795Z,98705.00
2023-10-09T01:03:17.933Z,98705.00
2023-10-09T01:03:28.006Z,98705.00
2023-10-09T01:03:37.899Z,98705.00
2023-10-09T01:03:48.018Z,98705.00
2023-10-09T01:03:58.173Z,98705.00
2023-10-09T01:04:08.441Z,98705.00
2023-10-09T01:04:18.668Z,98705.00
2023-10-09T01:04:28.431Z,98705.00
2023-10-09T01:04:38.646Z,98705.00
2023-10-09T01:04:48.498Z,98705.00
2023-10-09T01:04:58.515Z,98705.00
2023-10-09T01:05:08.511Z,98707.00
2023-10-09T01:05:18.777Z,98705.00
2023-10-09T01:05:28.779Z,98705.00
2023-10-09T01:05:38.811Z,98703.00
2023-10-09T01:05:48.791Z,98703.00
2023-10-09T01:05:58.997Z,98705.00
2023-10-09T01:06:08.974Z,98705.00
2023-10-09T01:06:19.005Z,98705.00
2023-10-09T01:06:29.145Z,98703.00
2023-10-09T01:06:39.051Z,98703.00
2023-10-09T01:06:49.051Z,98703.00
2023-10-09T01:06:59.310Z,98703.00
2023-10-09T01:07:09.306Z,98705.00
2023-10-09T01:07:19.316Z,98703.00
2023-10-09T01:07:29.329Z,98705.00
2023-10-09T01:07:39.337Z,98705.00
2023-10-09T01:07:49.338Z,98705.00
2023-10-09T01:07:59.413Z,98705.00
2023-10-09T01:08:09.411Z,98705.00
2023-10-09T01:08:19.404Z,98705.00
2023-10-09T01:08:29.437Z,98705.00
2023-10-09T01:08:39.444Z,98707.00
2023-10-09T01:08:49.450Z,98705.00
2023-10-09T01:08:59.455Z,98703.00
2023-10-09T01:09:09.518Z,98703.00
2023-10-09T01:09:19.561Z,98703.00
2023-10-09T01:09:29.666Z,98703.00
2023-10-09T01:09:39.733Z,98699.00
2023-10-09T01:09:49.982Z,98703.00
2023-10-09T01:09:59.982Z,98701.00
2023-10-09T01:10:09.988Z,98705.00
2023-10-09T01:10:19.987Z,98701.00
2023-10-09T01:10:29.993Z,98701.00
2023-10-09T01:10:39.999Z,98701.00
2023-10-09T01:10:50.006Z,98703.00
2023-10-09T01:11:00.052Z,98699.00
2023-10-09T01:11:10.127Z,98701.00
2023-10-09T01:11:20.053Z,98701.00
2023-10-09T01:11:30.041Z,98701.00
2023-10-09T01:11:40.076Z,98697.00
2023-10-09T01:11:50.154Z,98696.00
2023-10-09T01:12:00.331Z,98696.00
2023-10-09T01:12:10.333Z,98696.00
2023-10-09T01:12:20.395Z,98696.00
2023-10-09T01:12:30.505Z,98696.00
2023-10-09T01:12:40.680Z,98696.00
2023-10-09T01:12:50.712Z,98696.00
2023-10-09T01:13:00.753Z,98696.00
2023-10-09T01:13:10.803Z,98694.00
2023-10-09T01:13:20.933Z,98694.00
2023-10-09T01:13:30.971Z,98694.00
2023-10-09T01:13:40.978Z,98694.00
2023-10-09T01:13:50.975Z,98694.00
2023-10-09T01:14:00.997Z,98694.00
2023-10-09T01:14:10.988Z,98694.00
2023-10-09T01:14:20.995Z,98692.00
2023-10-09T01:14:31.010Z,98694.00
2023-10-09T01:14:41.015Z,98694.00
2023-10-09T01:14:51.024Z,98694.00
2023-10-09T01:15:01.123Z,98694.00
2023-10-09T01:15:11.129Z,98694.00
2023-10-09T01:15:21.141Z,98690.00
2023-10-09T01:15:31.185Z,98692.00
2023-10-09T01:15:41.227Z,98692.00
2023-10-09T01:15:51.254Z,98692.00
2023-10-09T01:16:01.256Z,98692.00
2023-10-09T01:16:11.336Z,98692.00
2023-10-09T01:16:21.401Z,98692.00
2023-10-09T01:16:31.489Z,98692.00
2023-10-09T01:16:41.764Z,98692.00
2023-10-09T01:16:51.766Z,98692.00
2023-10-09T01:17:01.773Z,98692.00
2023-10-09T01:17:11.787Z,98690.00
2023-10-09T01:17:21.784Z,98690.00
2023-10-09T01:17:31.821Z,98688.00
2023-10-09T01:17:41.849Z,98688.00
2023-10-09T01:17:51.951Z,98690.00
2023-10-09T01:18:02.044Z,98688.00
2023-10-09T01:18:12.126Z,98690.00
2023-10-09T01:18:22.329Z,98690.00
2023-10-09T01:18:32.377Z,98692.00
2023-10-09T01:18:42.397Z,98688.00
2023-10-09T01:18:52.459Z,98692.00
2023-10-09T01:19:02.476Z,98688.00
2023-10-09T01:19:12.483Z,98690.00
2023-10-09T01:19:22.494Z,98688.00
2023-10-09T01:19:32.506Z,98690.00
2023-10-09T01:19:42.515Z,98690.00
2023-10-09T01:19:52.525Z,98688.00
2023-10-09T01:20:02.537Z,98688.00
2023-10-09T01:20:12.549Z,98688.00
2023-10-09T01:20:22.663Z,98688.00
2023-10-09T01:20:32.667Z,98684.00
2023-10-09T01:20:42.684Z,98686.00
2023-10-09T01:20:52.715Z,98684.00
2023-10-09T01:21:02.759Z,98686.00
2023-10-09T01:21:13.076Z,98686.00
2023-10-09T01:21:23.171Z,98684.00
2023-10-09T01:21:33.255Z,98684.00
2023-10-09T01:21:43.256Z,98686.00
2023-10-09T01:21:53.280Z,98686.00
2023-10-09T01:22:03.276Z,98684.00
2023-10-09T01:22:13.278Z,98686.00
2023-10-09T01:22:23.287Z,98684.00
2023-10-09T01:22:33.297Z,98686.00
2023-10-09T01:22:43.297Z,98686.00
2023-10-09T01:22:53.311Z,98688.00
2023-10-09T01:23:03.322Z,98688.00
2023-10-09T01:23:13.331Z,98688.00
2023-10-09T01:23:23.333Z,98686.00
2023-10-09T01:23:33.377Z,98686.00
2023-10-09T01:23:43.382Z,98688.00
2023-10-09T01:23:53.406Z,98688.00
2023-10-09T01:24:03.502Z,98686.00
2023-10-09T01:24:13.721Z,98688.00
2023-10-09T01:24:23.526Z,98688.00
2023-10-09T01:24:33.548Z,98686.00
2023-10-09T01:24:43.706Z,98686.00
2023-10-09T01:24:53.705Z,98686.00
2023-10-09T01:25:03.710Z,98686.00
2023-10-09T01:25:13.715Z,98688.00
2023-10-09T01:25:23.724Z,98688.00
2023-10-09T01:25:33.729Z,98688.00
2023-10-09T01:25:43.781Z,98686.00
2023-10-09T01:25:53.810Z,98688.00
2023-10-09T01:26:03.815Z,98684.00
2023-10-09T01:26:13.832Z,98684.00
2023-10-09T01:26:23.830Z,98686.00
2023-10-09T01:26:33.841Z,98684.00
2023-10-09T01:26:43.872Z,98684.00
2023-10-09T01:26:53.873Z,98686.00
2023-10-09T01:27:04.098Z,98686.00
2023-10-09T01:27:14.147Z,98688.00
2023-10-09T01:27:24.250Z,98686.00
2023-10-09T01:27:34.332Z,98686.00
2023-10-09T01:27:44.231Z,98688.00
2023-10-09T01:27:54.242Z,98688.00
2023-10-09T01:28:04.258Z,98686.00
2023-10-09T01:28:14.392Z,98686.00
2023-10-09T01:28:24.399Z,98690.00
2023-10-09T01:28:34.411Z,98686.00
2023-10-09T01:28:44.415Z,98686.00
2023-10-09T01:28:54.424Z,98688.00
2023-10-09T01:29:04.438Z,98686.00
2023-10-09T01:29:14.442Z,98686.00
2023-10-09T01:29:24.469Z,98686.00
2023-10-09T01:29:34.471Z,98688.00
2023-10-09T01:29:44.482Z,98686.00
2023-10-09T01:29:54.535Z,98686.00
2023-10-09T01:30:04.615Z,98688.00
2023-10-09T01:30:14.670Z,98690.00
2023-10-09T01:30:24.698Z,98688.00
2023-10-09T01:30:34.812Z,98688.00
2023-10-09T01:30:44.877Z,98686.00
2023-10-09T01:30:54.881Z,98686.00
2023-10-09T01:31:05.157Z,98686.00
2023-10-09T01:31:15.207Z,98688.00
2023-10-09T01:31:25.222Z,98686.00
2023-10-09T01:31:35.255Z,98688.00
2023-10-09T01:31:45.360Z,98686.00
2023-10-09T01:31:55.373Z,98688.00
2023-10-09T01:32:05.396Z,98688.00
2023-10-09T01:32:15.429Z,98684.00
2023-10-09T01:32:25.475Z,98686.00
2023-10-09T01:32:35.490Z,98686.00
2023-10-09T01:32:45.539Z,98686.00
2023-10-09T01:32:55.691Z,98690.00
2023-10-09T01:33:05.656Z,98684.00
2023-10-09T01:33:15.786Z,98686.00
2023-10-09T01:33:25.834Z,98686.00
2023-10-09T01:33:35.879Z,98688.00
2023-10-09T01:33:45.944Z,98680.00
2023-10-09T01:33:55.995Z,98686.00
2023-10-09T01:34:06.090Z,98688.00
2023-10-09T01:34:16.321Z,98686.00
2023-10-09T01:34:26.216Z,98688.00
2023-10-09T01:34:36.296Z,98688.00
2023-10-09T01:34:46.372Z,98686.00
2023-10-09T01:34:56.321Z,98688.00
2023-10-09T01:35:06.633Z,98682.00
2023-10-09T01:35:16.636Z,98682.00
2023-10-09T01:35:26.638Z,98682.00
2023-10-09T01:35:36.630Z,98684.00
2023-10-09T01:35:46.795Z,98682.00
2023-10-09T01:35:56.841Z,98682.00
2023-10-09T01:36:06.906Z,98682.00
2023-10-09T01:36:16.923Z,98682.00
2023-10-09T01:36:26.956Z,98684.00
2023-10-09T01:36:36.941Z,98684.00
2023-10-09T01:36:47.204Z,98684.00
2023-10-09T01:36:57.410Z,98684.00
2023-10-09T01:37:07.293Z,98684.00
2023-10-09T01:37:17.303Z,98684.00
2023-10-09T01:37:27.309Z,98680.00
2023-10-09T01:37:37.326Z,98682.00
2023-10-09T01:37:47.327Z,98686.00
2023-10-09T01:37:57.338Z,98682.00
2023-10-09T01:38:07.340Z,98686.00
2023-10-09T01:38:17.346Z,98684.00
2023-10-09T01:38:27.345Z,98682.00
2023-10-09T01:38:37.353Z,98684.00
2023-10-09T01:38:47.356Z,98684.00
2023-10-09T01:38:57.369Z,98684.00
2023-10-09T01:39:07.402Z,98684.00
2023-10-09T01:39:17.512Z,98684.00
2023-10-09T01:39:27.595Z,98686.00
2023-10-09T01:39:37.875Z,98684.00
2023-10-09T01:39:47.883Z,98686.00
2023-10-09T01:39:57.884Z,98684.00
2023-10-09T01:40:07.891Z,98684.00
2023-10-09T01:40:17.905Z,98686.00
2023-10-09T01:40:27.909Z,98688.00
2023-10-09T01:40:37.926Z,98684.00
2023-10-09T01:40:47.930Z,98686.00
2023-10-09T01:40:57.932Z,98686.00
2023-10-09T01:41:07.974Z,98688.00
2023-10-09T01:41:17.972Z,98684.00
2023-10-09T01:41:27.976Z,98686.00
2023-10-09T01:41:37.981Z,98684.00
2023-10-09T01:41:48.055Z,98684.00
2023-10-09T01:41:58.079Z,98684.00
2023-10-09T01:42:08.092Z,98686.00
2023-10-09T01:42:18.138Z,98684.00
2023-10-09T01:42:28.202Z,98686.00
2023-10-09T01:42:38.314Z,98684.00
2023-10-09T01:42:48.501Z,98686.00
2023-10-09T01:42:58.393Z,98686.00
2023-10-09T01:43:08.402Z,98686.00
2023-10-09T01:43:18.411Z,98684.00
2023-10-09T01:43:28.430Z,98682.00
2023-10-09T01:43:38.689Z,98686.00
2023-10-09T01:43:48.696Z,98686.00
2023-10-09T01:43:58.691Z,98684.00
2023-10-09T01:44:09.074Z,98684.00
2023-10-09T01:44:19.094Z,98684.00
2023-10-09T01:44:29.098Z,98684.00
2023-10-09T01:44:39.108Z,98684.00
2023-10-09T01:44:49.111Z,98682.00
2023-10-09T01:44:59.168Z,98684.00
2023-10-09T01:45:09.215Z,98684.00
2023-10-09T01:45:19.272Z,98684.00
2023-10-09T01:45:29.382Z,98684.00
2023-10-09T01:45:39.469Z,98686.00
2023-10-09T01:45:49.500Z,98684.00
2023-10-09T01:45:59.546Z,98684.00
2023-10-09T01:46:09.642Z,98686.00
2023-10-09T01:46:19.677Z,98682.00
2023-10-09T01:46:29.702Z,98684.00
2023-10-09T01:46:39.713Z,98686.00
2023-10-09T01:46:49.722Z,98684.00
2023-10-09T01:46:59.734Z,98684.00
2023-10-09T01:47:09.740Z,98686.00
2023-10-09T01:47:19.810Z,98682.00
2023-10-09T01:47:29.908Z,98682.00
2023-10-09T01:47:40.059Z,98682.00
2023-10-09T01:47:50.144Z,98684.00
2023-10-09T01:48:00.127Z,98684.00
2023-10-09T01:48:10.423Z,98684.00
2023-10-09T01:48:20.440Z,98684.00
2023-10-09T01:48:30.484Z,98684.00
2023-10-09T01:48:40.606Z,98684.00
2023-10-09T01:48:50.587Z,98680.00
2023-10-09T01:49:00.624Z,98686.00
2023-10-09T01:49:10.626Z,98684.00
2023-10-09T01:49:20.759Z,98682.00
2023-10-09T01:49:30.760Z,98682.00
2023-10-09T01:49:40.791Z,98682.00
2023-10-09T01:49:50.944Z,98682.00
2023-10-09T01:50:00.873Z,98682.00
2023-10-09T01:50:10.883Z,98686.00
2023-10-09T01:50:20.920Z,98684.00
2023-10-09T01:50:31.067Z,98684.00
2023-10-09T01:50:41.076Z,98684.00
2023-10-09T01:50:51.078Z,98684.00
2023-10-09T01:51:01.126Z,98684.00
2023-10-09T01:51:11.146Z,98684.00
2023-10-09T01:51:21.220Z,98684.00
2023-10-09T01:51:31.347Z,98684.00
2023-10-09T01:51:41.352Z,98684.00
2023-10-09T01:51:51.350Z,98684.00
2023-10-09T01:52:01.356Z,98684.00
2023-10-09T01:52:11.355Z,98686.00
2023-10-09T01:52:21.385Z,98686.00
2023-10-09T01:52:31.416Z,98686.00
2023-10-09T01:52:41.413Z,98686.00
2023-10-09T01:52:51.420Z,98686.00
2023-10-09T01:53:01.423Z,98686.00
2023-10-09T01:53:11.431Z,98686.00
2023-10-09T01:53:21.429Z,98686.00
2023-10-09T01:53:31.437Z,98684.00
2023-10-09T01:53:41.459Z,98684.00
2023-10-09T01:53:51.473Z,98686.00
2023-10-09T01:54:01.542Z,98686.00
2023-10-09T01:54:11.662Z,98686.00
2023-10-09T01:54:21.640Z,98686.00
2023-10-09T01:54:31.740Z,98684.00
2023-10-09T01:54:41.779Z,98686.00
2023-10-09T01:54:51.783Z,98682.00
2023-10-09T01:55:01.787Z,98684.00
2023-10-09T01:55:11.790Z,98682.00
2023-10-09T01:55:21.827Z,98684.00
2023-10-09T01:55:31.837Z,98684.00
2023-10-09T01:55:41.959Z,98684.00
2023-10-09T01:55:51.859Z,98682.00
2023-10-09T01:56:01.868Z,98682.00
2023-10-09T01:56:11.878Z,98682.00
2023-10-09T01:56:22.014Z,98684.00
2023-10-09T01:56:32.016Z,98684.00
2023-10-09T01:56:42.021Z,98684.00
2023-10-09T01:56:52.054Z,98682.00
2023-10-09T01:57:02.077Z,98682.00
2023-10-09T01:57:12.141Z,98686.00
2023-10-09T01:57:22.213Z,98684.00
2023-10-09T01:57:32.312Z,98684.00
2023-10-09T01:57:42.299Z,98684.00
2023-10-09T01:57:52.300Z,98684.00